• Join FlightAware (Why Join?)
  • Login
  • US Flag 
10:31PM EDT


 

Airport Tracker/Info


-or-


 

Live Flight TrackerFlight Track Log ✈ TAM3386 ✈ 19-Jun-2013 ✈ SBGR / GRU - SBBE / BEL

Flight Track Log - Related Links

Times and Time Zones

All times are in EDT time to prevent confusion due to time zone crossing. See the TAM3386 flight status page for this flight to view local times or setup timezone preferences in your user account.

Time Position Orientation Groundspeed Altitude Reporting Facility
EDT Latitude Longitude Course Direction KTS MPH feet Rate Location/Type
06:50PM -19.4471 -46.8634 355° North  Level Estimated
06:51PM -19.3226 -46.8754 355° North  Level Estimated
06:52PM -19.1981 -46.8874 355° North  Level Estimated
06:53PM -19.0735 -46.8993 355° North  Level Estimated
06:54PM -18.9490 -46.9112 355° North  Level Estimated
06:55PM -18.8244 -46.9231 355° North  Level Estimated
06:56PM -18.6999 -46.9350 355° North  Level Estimated
06:57PM -18.5753 -46.9469 355° North  Level Estimated
06:58PM -18.4508 -46.9588 355° North  Level Estimated
06:59PM -18.3262 -46.9706 355° North  Level Estimated
07:00PM -18.2017 -46.9824 355° North  Level Estimated
07:01PM -18.0771 -46.9942 355° North  Level Estimated
07:02PM -17.9526 -47.0060 355° North  Level Estimated
07:03PM -17.8280 -47.0178 355° North  Level Estimated
07:04PM -17.7035 -47.0295 355° North  Level Estimated
07:05PM -17.5789 -47.0413 355° North  Level Estimated
07:06PM -17.4544 -47.0530 355° North  Level Estimated
07:07PM -17.3298 -47.0647 355° North  Level Estimated
07:08PM -17.2053 -47.0764 355° North  Level Estimated
07:09PM -17.0807 -47.0880 355° North  Level Estimated
07:10PM -16.9561 -47.0997 355° North  Level Estimated
07:11PM -16.8316 -47.1113 355° North  Level Estimated
07:12PM -16.7070 -47.1230 355° North  Level Estimated
07:13PM -16.5825 -47.1346 355° North  Level Estimated
07:14PM -16.4579 -47.1462 355° North  Level Estimated
07:15PM -16.3333 -47.1578 355° North  Level Estimated
07:16PM -16.2088 -47.1693 355° North  Level Estimated
07:17PM -16.0842 -47.1809 355° North  Level Estimated
07:18PM -15.9597 -47.1924 355° North  Level Estimated
07:19PM -15.8351 -47.2039 355° North  Level Estimated
07:20PM -15.7105 -47.2155 355° North  Level Estimated
07:21PM -15.5860 -47.2270 355° North  Level Estimated
07:22PM -15.4614 -47.2384 355° North  Level Estimated
07:23PM -15.3369 -47.2499 355° North  Level Estimated
07:24PM -15.2123 -47.2613 355° North  Level Estimated
07:25PM -15.0877 -47.2728 355° North  Level Estimated
07:26PM -14.9631 -47.2842 355° North  Level Estimated
07:27PM -14.8386 -47.2956 355° North  Level Estimated
07:28PM -14.7140 -47.3070 355° North  Level Estimated
07:29PM -14.5894 -47.3184 355° North  Level Estimated
07:30PM -14.4649 -47.3298 355° North  Level Estimated
07:31PM -14.3403 -47.3411 355° North  Level Estimated
07:32PM -14.2157 -47.3525 355° North  Level Estimated
07:33PM -14.0912 -47.3638 355° North  Level Estimated
07:34PM -13.9666 -47.3752 355° North  Level Estimated
07:35PM -13.8420 -47.3865 355° North  Level Estimated
07:36PM -13.7174 -47.3978 355° North  Level Estimated
07:37PM -13.5929 -47.4091 355° North  Level Estimated
07:38PM -13.4683 -47.4203 355° North  Level Estimated
07:39PM -13.3437 -47.4316 355° North  Level Estimated
07:40PM -13.2192 -47.4428 355° North  Level Estimated
07:41PM -13.0946 -47.4541 355° North  Level Estimated
07:42PM -12.9700 -47.4653 355° North  Level Estimated
07:43PM -12.8454 -47.4765 355° North  Level Estimated
07:44PM -12.7208 -47.4878 355° North  Level Estimated
07:45PM -12.5963 -47.4990 355° North  Level Estimated
07:46PM -12.4717 -47.5101 355° North  Level Estimated
07:47PM -12.3471 -47.5213 355° North  Level Estimated
07:48PM -12.2225 -47.5325 355° North  Level Estimated
07:49PM -12.0979 -47.5436 355° North  Level Estimated
07:50PM -11.9734 -47.5548 355° North  Level Estimated
07:51PM -11.8488 -47.5659 355° North  Level Estimated
07:52PM -11.7242 -47.5770 355° North  Level Estimated
07:53PM -11.5996 -47.5881 355° North  Level Estimated
07:54PM -11.4750 -47.5992 355° North  Level Estimated
07:55PM -11.3505 -47.6103 355° North  Level Estimated
07:56PM -11.2259 -47.6214 355° North  Level Estimated
07:57PM -11.1013 -47.6325 355° North  Level Estimated
07:58PM -10.9767 -47.6435 355° North  Level Estimated
07:59PM -10.8521 -47.6546 355° North  Level Estimated
08:00PM -10.7276 -47.6656 355° North  Level Estimated
08:01PM -10.6030 -47.6767 355° North  Level Estimated
08:02PM -10.4784 -47.6877 355° North  Level Estimated
08:03PM -10.3538 -47.6987 355° North  Level Estimated
08:04PM -10.2292 -47.7098 355° North  Level Estimated
08:05PM -10.1047 -47.7207 355° North  Level Estimated
08:06PM -9.9801 -47.7317 355° North  Level Estimated
08:07PM -9.8555 -47.7427 355° North  Level Estimated
08:08PM -9.7309 -47.7537 355° North  Level Estimated
08:09PM -9.6063 -47.7647 355° North  Level Estimated
08:10PM -9.4817 -47.7756 355° North  Level Estimated
08:11PM -9.3571 -47.7866 355° North  Level Estimated
08:12PM -9.2325 -47.7975 355° North  Level Estimated
08:13PM -9.1079 -47.8085 355° North  Level Estimated
08:14PM -8.9833 -47.8194 355° North  Level Estimated
08:15PM -8.8588 -47.8303 355° North  Level Estimated
08:16PM -8.7342 -47.8412 355° North  Level Estimated
08:17PM -8.6096 -47.8521 355° North  Level Estimated
08:18PM -8.4850 -47.8630 355° North  Level Estimated
08:19PM -8.3604 -47.8739 355° North  Level Estimated
08:20PM -8.2358 -47.8848 355° North  Level Estimated
08:21PM -8.1112 -47.8957 355° North  Level Estimated
08:22PM -7.9866 -47.9066 355° North  Level Estimated
08:23PM -7.8620 -47.9174 355° North  Level Estimated
08:24PM -7.7375 -47.9283 355° North  Level Estimated
08:25PM -7.6129 -47.9392 355° North  Level Estimated
08:26PM -7.4883 -47.9500 355° North  Level Estimated
08:27PM -7.3637 -47.9608 355° North  Level Estimated
08:28PM -7.2391 -47.9717 355° North  Level Estimated
08:29PM -7.1145 -47.9825 355° North  Level Estimated
08:30PM -6.9899 -47.9933 355° North  Level Estimated
08:31PM -6.8653 -48.0041 355° North  Level Estimated
08:32PM -6.7407 -48.0149 355° North  Level Estimated
08:33PM -6.6161 -48.0258 355° North  Level Estimated
08:34PM -6.4915 -48.0366 355° North  Level Estimated
08:35PM -6.3670 -48.0474 355° North  Level Estimated
08:36PM -6.2424 -48.0581 355° North  Level Estimated
08:37PM -6.1178 -48.0689 355° North  Level Estimated
08:38PM -5.9932 -48.0797 355° North  Level Estimated
08:39PM -5.8686 -48.0905 355° North  Level Estimated
08:40PM -5.7440 -48.1012 355° North  Level Estimated
08:41PM -5.6194 -48.1120 355° North  Level Estimated
08:42PM -5.4948 -48.1228 355° North  Level Estimated
08:43PM -5.3702 -48.1335 355° North  Level Estimated
08:44PM -5.2456 -48.1443 355° North  Level Estimated
08:45PM -5.1210 -48.1550 355° North  Level Estimated
08:46PM -4.9964 -48.1658 355° North  Level Estimated
08:47PM -4.8718 -48.1765 355° North  Level Estimated
08:48PM -4.7472 -48.1872 355° North  Level Estimated
08:49PM -4.6226 -48.1980 355° North  Level Estimated
08:50PM -4.4980 -48.2087 355° North  Level Estimated
08:51PM -4.3734 -48.2194 355° North  Level Estimated
08:52PM -4.2488 -48.2301 355° North  Level Estimated
08:53PM -4.1242 -48.2409 355° North  Level Estimated
08:54PM -3.9996 -48.2516 355° North  Level Estimated
08:55PM -3.8750 -48.2623 355° North  Level Estimated
08:56PM -3.7504 -48.2730 355° North  Level Estimated
08:57PM -3.6258 -48.2837 355° North  Level Estimated
08:58PM -3.5012 -48.2944 355° North  Level Estimated
08:59PM -3.3766 -48.3051 355° North  Level Estimated
09:00PM -3.2520 -48.3158 355° North  Level Estimated
09:01PM -3.1274 -48.3265 355° North  Level Estimated
09:02PM -3.0028 -48.3372 355° North  Level Estimated
09:03PM -2.8782 -48.3479 355° North  Level Estimated
09:04PM -2.7536 -48.3586 355° North  Level Estimated
09:05PM -2.6290 -48.3692 355° North  Level Estimated
09:06PM -2.5044 -48.3799 355° North  Level Estimated
09:07PM -2.3798 -48.3906 355° North  Level Estimated
09:08PM -2.2552 -48.4013 355° North  Level Estimated
09:09PM -2.1306 -48.4119 355° North  Level Estimated
09:10PM -2.0060 -48.4226 355° North  Level Estimated
09:11PM -1.8814 -48.4333 355° North  Level Estimated
09:12PM -1.7568 -48.4440 355° North  Level Estimated
09:13PM -1.6322 -48.4546 355° North  Level Estimated
09:14PM -1.5076 -48.4653 355° North  Level Estimated
09:15PM -1.3830 -48.4760 355° North  Level Estimated
09:16PM -1.3793 -48.4763 355° North  Level Estimated
09:17PM -1.3793 -48.4763 270° West  Level Estimated
09:18PM -1.3793 -48.4763 270° West  Level Estimated
09:19PM -1.3793 -48.4763 270° West  Level Estimated
09:20PM -1.3793 -48.4763 270° West  Level Estimated
09:21PM -1.3793 -48.4763 270° West  Level Estimated
09:22PM -1.3793 -48.4763 270° West  Level Estimated
09:23PM -1.3793 -48.4763 270° West  Level Estimated
09:24PM -1.3793 -48.4763 270° West  Level Estimated
09:25PM -1.3793 -48.4763 270° West  Level Estimated
09:26PM -1.3793 -48.4763 270° West  Level Estimated
09:27PM -1.3793 -48.4763 270° West  Level Estimated
09:28PM -1.3793 -48.4763 270° West  Level Estimated
09:29PM -1.3793 -48.4763 270° West  Level Estimated
09:30PM -1.3793 -48.4763 270° West  Level Estimated
09:31PM -1.3793 -48.4763 270° West  Level Estimated